< < Back
Terminal Aerodrome Forecast


Current Version              Previous Versions:   1  2  3  4  5  6  7  8  9  

Terminal Aerodrome Forecast

621
FTUS42 KTAE 251100
TAFVLD
TAF
KVLD 251120Z 2512/2612 00000KT 5SM BR SKC
     FM251300 36005KT P6SM SKC
     FM260000 00000KT P6SM SKC
     FM260900 00000KT 4SM BR SKC=

Latest METAR

297
SAUS70 KWBC 260100 RRA
MTRVLD
METAR KVLD 260053Z AUTO 00000KT 10SM CLR 13/07 A3001 RMK AO2 SLP171
T01280067 TSNO


USA.gov is the U.S. government's official web portal to all federal, state and local government web resources and services.